createdAt,value
2018-10-11T00:01:41.080Z,9.55
2018-10-11T00:04:46.032Z,9.68
2018-10-11T00:07:50.984Z,9.71
2018-10-11T00:10:55.937Z,9.75
2018-10-11T00:14:00.918Z,9.74
2018-10-11T00:17:06.100Z,9.71
2018-10-11T00:20:11.090Z,9.75
2018-10-11T00:23:16.091Z,9.79
2018-10-11T00:26:21.911Z,9.81
2018-10-11T00:29:27.896Z,9.80
2018-10-11T00:32:32.917Z,9.78
2018-10-11T00:35:38.332Z,9.79
2018-10-11T00:38:43.369Z,9.78
2018-10-11T00:41:48.359Z,9.76
2018-10-11T00:44:54.170Z,9.74
2018-10-11T00:47:59.148Z,9.70
2018-10-11T00:51:04.308Z,9.67
2018-10-11T00:54:09.577Z,9.66
2018-10-11T00:57:14.541Z,9.63
2018-10-11T01:00:19.566Z,9.62
2018-10-11T01:03:24.592Z,9.60
2018-10-11T01:06:29.579Z,9.57
2018-10-11T01:09:34.573Z,9.56
2018-10-11T01:12:39.558Z,9.50
2018-10-11T01:15:44.522Z,9.51
2018-10-11T01:18:49.480Z,9.50
2018-10-11T01:21:54.438Z,9.46
2018-10-11T01:24:59.393Z,9.47
2018-10-11T01:28:04.391Z,9.43
2018-10-11T01:31:15.269Z,9.40
2018-10-11T01:34:20.275Z,9.35
2018-10-11T01:37:26.464Z,9.35
2018-10-11T01:40:31.544Z,9.27
2018-10-11T01:43:36.550Z,9.27
2018-10-11T01:46:41.537Z,9.24
2018-10-11T01:49:46.538Z,9.20
2018-10-11T01:52:51.534Z,9.18
2018-10-11T01:55:56.539Z,9.10
2018-10-11T01:59:01.534Z,9.11
2018-10-11T02:02:06.546Z,9.06
2018-10-11T02:05:11.529Z,9.06
2018-10-11T02:08:16.536Z,9.00
2018-10-11T02:11:21.510Z,9.00
2018-10-11T02:14:26.492Z,9.00
2018-10-11T02:17:32.261Z,8.96
2018-10-11T02:20:37.198Z,8.95
2018-10-11T02:23:42.898Z,8.96
2018-10-11T02:26:47.830Z,8.94
2018-10-11T02:29:52.771Z,8.90
2018-10-11T02:32:57.752Z,8.90
2018-10-11T02:36:02.714Z,8.85
2018-10-11T02:39:08.771Z,8.87
2018-10-11T02:42:13.734Z,8.87
2018-10-11T02:45:18.690Z,8.83
2018-10-11T02:48:23.653Z,8.81
2018-10-11T02:51:28.644Z,8.81
2018-10-11T02:54:33.630Z,8.77
2018-10-11T02:57:50.078Z,8.77
2018-10-11T03:00:55.141Z,8.72
2018-10-11T03:04:02.162Z,8.69
2018-10-11T03:07:08.425Z,8.68
2018-10-11T03:10:14.049Z,8.68
2018-10-11T03:13:19.033Z,8.68
2018-10-11T03:16:23.994Z,8.66
2018-10-11T03:19:28.945Z,8.66
2018-10-11T03:22:33.956Z,8.64
2018-10-11T03:25:40.585Z,8.62
2018-10-11T03:28:45.564Z,8.58
2018-10-11T03:31:50.507Z,8.55
2018-10-11T03:34:55.445Z,8.52
2018-10-11T03:38:00.469Z,8.48
2018-10-11T03:41:05.593Z,8.47
2018-10-11T03:44:10.554Z,8.44
2018-10-11T03:47:15.528Z,8.39
2018-10-11T03:50:20.775Z,8.39
2018-10-11T03:53:25.732Z,8.38
2018-10-11T03:56:30.706Z,8.35
2018-10-11T03:59:35.728Z,8.33
2018-10-11T04:02:40.725Z,8.29
2018-10-11T04:05:45.699Z,8.25
2018-10-11T04:08:50.662Z,8.22
2018-10-11T04:11:55.605Z,8.19
2018-10-11T04:15:00.545Z,8.17
2018-10-11T04:18:05.910Z,8.14
2018-10-11T04:21:12.948Z,8.09
2018-10-11T04:24:17.953Z,8.08
2018-10-11T04:27:22.929Z,8.04
2018-10-11T04:30:27.900Z,8.03
2018-10-11T04:33:32.853Z,8.04
2018-10-11T04:36:37.795Z,8.04
2018-10-11T04:39:42.740Z,8.01
2018-10-11T04:42:47.795Z,8.00
2018-10-11T04:45:52.663Z,7.99
2018-10-11T04:48:57.607Z,7.95
2018-10-11T04:52:02.576Z,7.95
2018-10-11T04:55:07.604Z,7.98
2018-10-11T04:58:12.555Z,7.99
2018-10-11T05:01:17.494Z,7.96
2018-10-11T05:04:22.437Z,7.93
2018-10-11T05:07:27.369Z,7.88
2018-10-11T05:10:32.553Z,7.83
2018-10-11T05:14:56.936Z,7.69
2018-10-11T05:18:02.751Z,7.70
2018-10-11T05:21:08.937Z,7.63
2018-10-11T05:24:13.890Z,7.69
2018-10-11T05:27:18.896Z,7.68
2018-10-11T05:30:23.993Z,7.68
2018-10-11T05:33:29.182Z,7.67
2018-10-11T05:36:34.230Z,7.73
2018-10-11T05:39:39.281Z,7.79
2018-10-11T05:42:44.323Z,7.82
2018-10-11T05:45:52.781Z,7.81
2018-10-11T05:48:58.715Z,7.82
2018-10-11T05:52:03.729Z,7.85
2018-10-11T05:55:08.801Z,7.89
2018-10-11T05:58:13.814Z,7.88
2018-10-11T06:01:19.091Z,7.84
2018-10-11T06:04:24.128Z,7.86
2018-10-11T06:07:29.178Z,7.87
2018-10-11T06:10:35.854Z,7.85
2018-10-11T06:13:41.612Z,7.80
2018-10-11T06:16:46.603Z,7.82
2018-10-11T06:19:51.702Z,7.91
2018-10-11T06:22:56.730Z,8.01
2018-10-11T06:26:02.044Z,8.07
2018-10-11T06:29:07.749Z,8.11
2018-10-11T06:32:12.786Z,8.15
2018-10-11T06:35:17.829Z,8.16
2018-10-11T06:38:22.831Z,8.23
2018-10-11T06:41:27.845Z,8.26
2018-10-11T06:44:32.835Z,8.31
2018-10-11T06:47:37.822Z,8.31
2018-10-11T06:50:44.234Z,8.38
2018-10-11T06:53:49.823Z,8.48
2018-10-11T06:56:55.701Z,8.57
2018-10-11T07:00:01.774Z,8.69
2018-10-11T07:03:07.633Z,8.80
2018-10-11T07:06:13.593Z,8.91
2018-10-11T07:09:18.541Z,8.98
2018-10-11T07:12:23.489Z,9.08
2018-10-11T07:15:28.491Z,9.17
2018-10-11T07:18:33.453Z,9.32
2018-10-11T07:21:38.534Z,9.44
2018-10-11T07:24:43.509Z,9.63
2018-10-11T07:27:48.510Z,9.80
2018-10-11T07:30:53.478Z,9.96
2018-10-11T07:33:58.446Z,10.15
2018-10-11T07:37:03.425Z,10.36
2018-10-11T07:40:08.402Z,10.54
2018-10-11T07:43:13.351Z,10.85
2018-10-11T07:46:18.329Z,11.23
2018-10-11T07:49:23.283Z,11.51
2018-10-11T07:52:28.244Z,11.70
2018-10-11T07:55:33.221Z,11.73
2018-10-11T07:58:38.373Z,11.98
2018-10-11T08:01:43.394Z,12.32
2018-10-11T08:04:48.314Z,12.62
2018-10-11T08:07:53.285Z,12.89
2018-10-11T08:10:58.421Z,13.17
2018-10-11T08:14:03.296Z,13.44
2018-10-11T08:17:08.617Z,13.72
2018-10-11T08:20:13.316Z,14.05
2018-10-11T08:23:18.249Z,14.30
2018-10-11T08:26:23.511Z,14.57
2018-10-11T08:29:28.241Z,14.90
2018-10-11T08:32:33.426Z,15.22
2018-10-11T08:35:38.234Z,15.52
2018-10-11T08:38:43.308Z,15.83
2018-10-11T08:41:48.219Z,16.15
2018-10-11T08:44:53.173Z,16.29
2018-10-11T08:47:58.114Z,16.58
2018-10-11T08:51:03.160Z,16.72
2018-10-11T08:54:13.979Z,16.80
2018-10-11T08:57:20.146Z,16.91
2018-10-11T09:00:25.165Z,17.11
2018-10-11T09:03:30.151Z,17.50
2018-10-11T09:06:35.095Z,17.95
2018-10-11T09:09:41.545Z,18.15
2018-10-11T09:12:46.478Z,18.15
2018-10-11T09:15:51.457Z,18.20
2018-10-11T09:18:59.196Z,18.26
2018-10-11T09:22:10.618Z,18.26
2018-10-11T09:25:16.339Z,18.27
2018-10-11T09:28:24.271Z,18.49
2018-10-11T09:31:30.447Z,18.63
2018-10-11T09:34:36.571Z,18.83
2018-10-11T09:37:43.870Z,19.09
2018-10-11T09:40:50.198Z,19.43
2018-10-11T09:43:55.382Z,19.64
2018-10-11T09:47:00.522Z,19.65
2018-10-11T09:50:06.390Z,19.74
2018-10-11T09:53:15.622Z,19.81
2018-10-11T09:56:24.591Z,19.58
2018-10-11T09:59:32.049Z,19.61
2018-10-11T10:02:38.779Z,19.89
2018-10-11T10:05:44.902Z,20.29
2018-10-11T10:08:51.220Z,20.52
2018-10-11T10:11:56.397Z,20.52
2018-10-11T10:15:03.666Z,20.70
2018-10-11T10:18:11.025Z,20.73
2018-10-11T10:21:21.333Z,20.80
2018-10-11T10:24:27.106Z,20.93
2018-10-11T10:27:36.583Z,21.06
2018-10-11T10:30:54.958Z,21.08
2018-10-11T10:33:59.997Z,20.97
2018-10-11T10:37:06.401Z,20.97
2018-10-11T10:40:11.379Z,20.99
2018-10-11T10:43:16.356Z,21.05
2018-10-11T10:46:21.508Z,21.09
2018-10-11T10:49:26.492Z,21.14
2018-10-11T10:52:31.462Z,21.32
2018-10-11T10:55:36.438Z,21.28
2018-10-11T10:58:41.419Z,21.27
2018-10-11T11:01:46.481Z,21.25
2018-10-11T11:04:51.446Z,21.21
2018-10-11T11:07:56.446Z,21.03
2018-10-11T11:11:01.391Z,21.09
2018-10-11T11:14:06.580Z,21.33
2018-10-11T11:17:11.543Z,21.49
2018-10-11T11:20:16.534Z,21.92
2018-10-11T11:23:21.527Z,22.24
2018-10-11T11:26:26.558Z,22.36
2018-10-11T11:29:31.545Z,22.33
2018-10-11T11:32:36.563Z,22.34
2018-10-11T11:35:41.654Z,22.47
2018-10-11T11:38:46.604Z,22.56
2018-10-11T11:41:51.613Z,22.44
2018-10-11T11:44:56.703Z,22.29
2018-10-11T11:48:08.394Z,22.46
2018-10-11T11:51:15.515Z,22.71
2018-10-11T11:54:23.937Z,22.93
2018-10-11T11:57:31.934Z,22.92
2018-10-11T12:00:40.493Z,22.81
2018-10-11T12:03:48.369Z,22.67
2018-10-11T12:06:53.758Z,22.81
2018-10-11T12:09:59.582Z,23.10
2018-10-11T12:15:02.202Z,23.09
2018-10-11T12:18:09.782Z,23.35
2018-10-11T12:21:15.046Z,23.57
2018-10-11T12:24:24.585Z,23.46
2018-10-11T12:27:30.801Z,23.46
2018-10-11T12:30:37.190Z,23.21
2018-10-11T12:33:43.287Z,23.04
2018-10-11T12:36:50.505Z,22.95
2018-10-11T12:39:56.945Z,22.89
2018-10-11T12:43:07.870Z,22.88
2018-10-11T12:46:13.859Z,22.96
2018-10-11T12:49:19.040Z,23.09
2018-10-11T12:52:26.215Z,23.15
2018-10-11T12:55:32.626Z,23.00
2018-10-11T12:58:38.126Z,22.84
2018-10-11T13:01:43.404Z,22.95
2018-10-11T13:04:49.904Z,23.12
2018-10-11T13:08:00.035Z,22.87
2018-10-11T13:11:09.370Z,22.78
2018-10-11T13:14:16.138Z,22.82
2018-10-11T13:17:22.919Z,22.96
2018-10-11T13:20:30.714Z,22.74
2018-10-11T13:23:37.111Z,22.64
2018-10-11T13:26:47.276Z,22.63
2018-10-11T13:29:53.901Z,22.53
2018-10-11T13:33:02.535Z,22.48
2018-10-11T13:36:10.330Z,22.38
2018-10-11T13:39:19.339Z,22.53
2018-10-11T13:42:25.183Z,22.57
2018-10-11T13:45:32.429Z,22.50
2018-10-11T13:48:40.205Z,22.23
2018-10-11T13:51:49.252Z,22.19
2018-10-11T13:54:56.290Z,22.15
2018-10-11T13:58:02.205Z,22.09
2018-10-11T14:01:10.543Z,21.82
2018-10-11T14:04:19.616Z,21.63
2018-10-11T14:07:27.171Z,21.51
2018-10-11T14:10:35.185Z,21.41
2018-10-11T14:13:40.894Z,21.31
2018-10-11T14:16:46.846Z,21.43
2018-10-11T14:19:54.262Z,21.63
2018-10-11T14:23:03.939Z,21.96
2018-10-11T14:26:09.146Z,22.20
2018-10-11T14:32:27.203Z,21.72
2018-10-11T14:35:34.936Z,21.69
2018-10-11T14:38:40.822Z,21.41
2018-10-11T14:41:46.112Z,21.19
2018-10-11T14:44:51.185Z,21.14
2018-10-11T14:47:56.268Z,20.96
2018-10-11T14:51:02.532Z,20.87
2018-10-11T14:54:08.053Z,20.72
2018-10-11T14:57:13.117Z,20.76
2018-10-11T15:00:19.485Z,20.75
2018-10-11T15:03:25.136Z,20.68
2018-10-11T15:06:30.919Z,20.55
2018-10-11T15:09:35.930Z,20.49
2018-10-11T15:12:40.962Z,20.44
2018-10-11T15:15:46.252Z,20.45
2018-10-11T15:18:51.156Z,20.41
2018-10-11T15:21:56.695Z,20.46
2018-10-11T15:25:01.769Z,20.51
2018-10-11T15:28:06.792Z,20.59
2018-10-11T15:31:12.875Z,20.61
2018-10-11T15:34:18.553Z,20.61
2018-10-11T15:37:24.713Z,20.79
2018-10-11T15:40:29.811Z,20.89
2018-10-11T15:43:34.905Z,20.89
2018-10-11T15:46:40.531Z,20.89
2018-10-11T15:49:45.546Z,20.68
2018-10-11T15:52:51.276Z,20.60
2018-10-11T15:55:56.283Z,20.59
2018-10-11T15:59:01.461Z,20.60
2018-10-11T16:02:07.966Z,20.63
2018-10-11T16:05:13.427Z,20.58
2018-10-11T16:08:19.362Z,20.55
2018-10-11T16:11:24.374Z,20.43
2018-10-11T16:14:30.141Z,20.37
2018-10-11T16:17:36.004Z,20.32
2018-10-11T16:20:41.014Z,20.01
2018-10-11T16:23:50.509Z,20.00
2018-10-11T16:26:55.505Z,19.99
2018-10-11T16:30:00.457Z,20.03
2018-10-11T16:33:08.547Z,19.96
2018-10-11T16:36:15.717Z,19.91
2018-10-11T16:39:21.306Z,19.77
2018-10-11T16:42:27.131Z,19.73
2018-10-11T16:45:32.655Z,19.62
2018-10-11T16:48:38.567Z,19.44
2018-10-11T16:51:44.408Z,19.32
2018-10-11T16:54:50.076Z,19.19
2018-10-11T16:57:55.090Z,19.06
2018-10-11T17:01:01.803Z,18.90
2018-10-11T17:04:07.659Z,18.81
2018-10-11T17:07:12.657Z,18.66
2018-10-11T17:10:18.017Z,18.54
2018-10-11T17:13:23.327Z,18.42
2018-10-11T17:16:28.286Z,18.36
2018-10-11T17:19:34.475Z,18.27
2018-10-11T17:22:40.514Z,18.22
2018-10-11T17:25:46.162Z,18.16
2018-10-11T17:28:51.190Z,18.07
2018-10-11T17:31:56.242Z,17.98
2018-10-11T17:35:01.283Z,17.86
2018-10-11T17:38:06.553Z,17.60
2018-10-11T17:41:12.563Z,17.55
2018-10-11T17:44:18.560Z,17.52
2018-10-11T17:47:23.684Z,17.42
2018-10-11T17:50:28.721Z,17.36
2018-10-11T17:53:34.581Z,17.28
2018-10-11T17:56:39.600Z,17.15
2018-10-11T17:59:44.804Z,17.04
2018-10-11T18:02:50.542Z,16.93
2018-10-11T18:05:56.581Z,16.86
2018-10-11T18:09:01.620Z,16.80
2018-10-11T18:12:06.970Z,16.75
2018-10-11T18:15:12.887Z,16.70
2018-10-11T18:18:17.893Z,16.62
2018-10-11T18:21:22.885Z,16.52
2018-10-11T18:24:27.911Z,16.43
2018-10-11T18:27:33.908Z,16.33
2018-10-11T18:30:39.108Z,16.24
2018-10-11T18:33:45.390Z,16.13
2018-10-11T18:36:50.479Z,16.04
2018-10-11T18:39:56.278Z,15.98
2018-10-11T18:43:01.929Z,15.87
2018-10-11T18:46:07.145Z,15.81
2018-10-11T18:49:12.270Z,15.73
2018-10-11T18:52:18.195Z,15.75
2018-10-11T18:55:24.161Z,15.78
2018-10-11T18:58:29.388Z,15.81
2018-10-11T19:01:35.910Z,15.84
2018-10-11T19:04:41.224Z,15.84
2018-10-11T19:07:47.050Z,15.84
2018-10-11T19:10:52.643Z,15.80
2018-10-11T19:13:58.346Z,15.73
2018-10-11T19:17:04.222Z,15.69
2018-10-11T19:20:09.272Z,15.66
2018-10-11T19:23:15.119Z,15.66
2018-10-11T19:26:20.981Z,15.68
2018-10-11T19:29:26.016Z,15.66
2018-10-11T19:32:31.018Z,15.69
2018-10-11T19:35:36.015Z,15.69
2018-10-11T19:38:41.022Z,15.71
2018-10-11T19:41:46.105Z,15.70
2018-10-11T19:44:52.084Z,15.68
2018-10-11T19:47:57.083Z,15.62
2018-10-11T19:51:03.234Z,15.61
2018-10-11T19:54:08.967Z,15.62
2018-10-11T19:57:15.298Z,15.63
2018-10-11T20:00:22.337Z,15.60
2018-10-11T20:03:28.102Z,15.58
2018-10-11T20:06:33.970Z,15.56
2018-10-11T20:09:39.014Z,15.52
2018-10-11T20:12:44.729Z,15.49
2018-10-11T20:15:50.481Z,15.48
2018-10-11T20:18:56.390Z,15.47
2018-10-11T20:22:03.254Z,15.49
2018-10-11T20:25:09.048Z,15.47
2018-10-11T20:28:14.005Z,15.46
2018-10-11T20:31:19.081Z,15.46
2018-10-11T20:34:25.126Z,15.42
2018-10-11T20:37:30.116Z,15.38
2018-10-11T20:40:36.273Z,15.35
2018-10-11T20:43:42.270Z,15.30
2018-10-11T20:46:47.257Z,15.24
2018-10-11T20:49:53.075Z,15.19
2018-10-11T20:52:59.193Z,15.14
2018-10-11T20:56:04.989Z,15.06
2018-10-11T20:59:10.000Z,14.99
2018-10-11T21:02:15.717Z,14.89
2018-10-11T21:05:21.501Z,14.91
2018-10-11T21:08:27.229Z,14.91
2018-10-11T21:15:10.934Z,14.72
2018-10-11T21:18:15.909Z,14.71
2018-10-11T21:21:22.681Z,14.68
2018-10-11T21:24:28.469Z,14.64
2018-10-11T21:27:33.474Z,14.65
2018-10-11T21:30:38.523Z,14.56
2018-10-11T21:33:44.739Z,14.51
2018-10-11T21:36:50.525Z,14.51
2018-10-11T21:39:56.150Z,14.51
2018-10-11T21:43:01.345Z,14.51
2018-10-11T21:46:07.210Z,14.50
2018-10-11T21:49:12.222Z,14.50
2018-10-11T21:52:18.046Z,14.47
2018-10-11T21:55:24.082Z,14.41
2018-10-11T21:58:29.101Z,14.30
2018-10-11T22:01:34.781Z,14.27
2018-10-11T22:04:40.082Z,14.21
2018-10-11T22:07:45.106Z,14.14
2018-10-11T22:10:50.955Z,14.05
2018-10-11T22:13:55.975Z,13.96
2018-10-11T22:17:02.239Z,13.88
2018-10-11T22:20:07.298Z,13.87
2018-10-11T22:23:12.314Z,13.79
2018-10-11T22:26:18.169Z,13.71
2018-10-11T22:29:23.561Z,13.61
2018-10-11T22:32:29.243Z,13.56
2018-10-11T22:35:35.089Z,13.52
2018-10-11T22:38:41.456Z,13.46
2018-10-11T22:41:46.467Z,13.39
2018-10-11T22:44:51.543Z,13.30
2018-10-11T22:47:57.327Z,13.23
2018-10-11T22:51:02.370Z,13.24
2018-10-11T22:54:08.009Z,13.11
2018-10-11T22:57:12.980Z,13.12
2018-10-11T23:00:18.949Z,13.01
2018-10-11T23:03:23.941Z,12.95
2018-10-11T23:06:30.290Z,12.93
2018-10-11T23:09:35.281Z,12.87
2018-10-11T23:12:40.244Z,12.80
2018-10-11T23:15:46.026Z,12.69
2018-10-11T23:18:51.038Z,12.62
2018-10-11T23:21:56.857Z,12.64
2018-10-11T23:25:01.848Z,12.56
2018-10-11T23:28:07.612Z,12.43
2018-10-11T23:31:12.569Z,12.33
2018-10-11T23:34:17.537Z,12.32
2018-10-11T23:37:22.485Z,12.34
2018-10-11T23:40:28.264Z,12.29
2018-10-11T23:43:33.262Z,12.30
2018-10-11T23:46:38.396Z,12.26
2018-10-11T23:49:44.389Z,12.23
2018-10-11T23:52:50.041Z,12.18
2018-10-11T23:55:55.789Z,12.14
2018-10-11T23:59:01.752Z,12.10
